Flight Track Log - Related Links

Times and Time Zones

All times are in EDT time to prevent confusion due to time zone crossing. See the SWA542 flight status page for this flight to view local times or setup timezone preferences in your user account.

Time Position Orientation Groundspeed Altitude Reporting Facility
EDT Latitude Longitude Course Direction KTS MPH feet Rate Location/Type
Thu 07:30:50 PM 28.4167 -81.3167 270° West 166 191 700  Level Orlando TRACON
Thu 07:31:44 PM 28.3833 -81.3333 204° Southwest 204 235 2,400 2,211 Climbing Orlando TRACON
Thu 07:32:44 PM 28.3833 -81.4167 270° West 259 298 4,900 1,300 Climbing Orlando TRACON
Thu 07:33:44 PM 28.4167 -81.4833 300° West 265 305 5,000 105 Climbing Orlando TRACON
Thu 07:34:38 PM 28.4333 -81.5500 286° West 268 308 5,100 1,526 Climbing Orlando TRACON
Thu 07:35:38 PM 28.4833 -81.6333 304° West 275 316 7,900 2,505 Climbing Orlando TRACON
Thu 07:36:00 PM 28.4167 -82.1257 270° West  Level FlightAware Approximate
Thu 07:38:04 PM 28.5711 -81.8147 299° West 291 335 13,700  Level Jacksonville Center
Thu 07:39:04 PM 28.6094 -81.9089 295° West 301 346 16,500 2,450 Climbing Jacksonville Center
Thu 07:40:04 PM 28.6247 -82.0103 280° West 325 374 18,600 2,600 Climbing Jacksonville Center
Thu 07:41:04 PM 28.6256 -82.1264 270° West 330 380 21,700 2,750 Climbing Jacksonville Center
Thu 07:42:04 PM 28.6325 -82.2325 274° West 330 380 24,100 1,900 Climbing Jacksonville Center
Thu 07:43:04 PM 28.6411 -82.3389 275° West 335 386 25,500 900 Climbing Jacksonville Center
Thu 07:44:04 PM 28.6481 -82.4572 274° West 343 395 25,900 550 Climbing Jacksonville Center
Thu 07:45:04 PM 28.6525 -82.5875 272° West 382 440 26,600 900 Climbing Jacksonville Center
Thu 07:46:04 PM 28.7300 -82.6678 318° Northwest 384 442 27,700 700 Climbing Jacksonville Center
Thu 07:47:04 PM 28.8469 -82.7219 338° Northwest 394 453 28,000 200 Climbing Jacksonville Center
Thu 07:48:04 PM 28.9639 -82.7786 337° Northwest 420 483 28,100 1,450 Climbing Jacksonville Center
Thu 07:49:04 PM 29.0786 -82.8283 339° North 436 502 30,900 2,300 Climbing Jacksonville Center
Thu 07:50:04 PM 29.1850 -82.8758 339° North 430 495 32,700 1,450 Climbing Jacksonville Center
Thu 07:51:04 PM 29.2917 -82.9236 339° North 418 481 33,800 1,050 Climbing Jacksonville Center
Thu 07:52:04 PM 29.4000 -82.9736 338° Northwest 413 475 34,800 900 Climbing Jacksonville Center
Thu 07:53:04 PM 29.5128 -83.0261 338° Northwest 419 482 35,600 950 Climbing Jacksonville Center
Thu 07:54:04 PM 29.6233 -83.0764 338° Northwest 424 488 36,700 1,150 Climbing Jacksonville Center
Thu 07:55:04 PM 29.7339 -83.1269 338° Northwest 424 488 37,900 650 Climbing Jacksonville Center
Thu 07:56:04 PM 29.8403 -83.1750 339° North 414 476 38,000 50 Climbing Jacksonville Center
Thu 07:57:04 PM 29.9444 -83.2258 337° Northwest 414 476 38,000  Level Jacksonville Center
Thu 07:58:04 PM 30.0675 -83.2767 340° North 414 476 38,000  Level Jacksonville Center
Thu 07:59:04 PM 30.1739 -83.3250 339° North 414 476 38,000  Level Jacksonville Center
Thu 08:00:04 PM 30.2822 -83.3761 338° Northwest 414 476 38,000  Level Jacksonville Center
Thu 08:01:04 PM 30.3864 -83.4222 339° North 414 476 38,000  Level Jacksonville Center
Thu 08:02:04 PM 30.4992 -83.4592 344° North 414 476 38,000  Level Jacksonville Center
Thu 08:03:04 PM 30.6158 -83.4889 348° North 414 476 38,000  Level Jacksonville Center
Thu 08:04:04 PM 30.7328 -83.5186 348° North 419 482 38,000  Level Jacksonville Center
Thu 08:05:04 PM 30.8453 -83.5483 347° North 424 488 38,000  Level Jacksonville Center
Thu 08:06:04 PM 30.9642 -83.5806 347° North 424 488 38,000  Level Jacksonville Center
Thu 08:07:04 PM 31.0831 -83.6106 348° North 424 488 38,000  Level Jacksonville Center
Thu 08:08:04 PM 31.2039 -83.6431 347° North 434 499 38,000  Level Jacksonville Center
Thu 08:10:15 PM 31.4644 -83.7103 348° North 430 495 38,000  Level Atlanta Center
Thu 08:11:15 PM 31.5875 -83.7414 348° North 436 502 38,000  Level Atlanta Center
Thu 08:12:15 PM 31.7089 -83.7753 347° North 436 502 38,000  Level Atlanta Center
Thu 08:13:15 PM 31.8214 -83.8017 349° North 448 516 38,000  Level Atlanta Center
Thu 08:14:15 PM 31.9425 -83.8358 347° North 454 522 38,000  Level Atlanta Center
Thu 08:15:15 PM 32.0678 -83.8625 350° North 448 516 38,000  Level Atlanta Center
Thu 08:16:15 PM 32.1911 -83.8719 356° North 448 516 38,000  Level Atlanta Center
Thu 08:17:15 PM 32.3206 -83.8839 356° North 448 516 38,000  Level Atlanta Center
Thu 08:18:15 PM 32.4458 -83.8961 355° North 453 521 38,000  Level Atlanta Center
Thu 08:19:15 PM 32.5753 -83.9058 356° North 458 527 38,000  Level Atlanta Center
Thu 08:20:15 PM 32.7067 -83.9081 359° North 463 533 38,000  Level Atlanta Center
Thu 08:21:15 PM 32.8403 -83.9153 357° North 463 533 38,000  Level Atlanta Center
Thu 08:22:15 PM 32.9717 -83.9200 358° North 468 539 38,000  Level Atlanta Center
Thu 08:23:15 PM 33.0992 -83.9222 359° North 462 532 38,000  Level Atlanta Center
Thu 08:24:15 PM 33.2306 -83.9122 North 462 532 38,000  Level Atlanta Center
Thu 08:25:15 PM 33.3642 -83.9019 North 467 537 38,000  Level Atlanta Center
Thu 08:26:15 PM 33.5039 -83.8919 North 462 532 38,000  Level Atlanta Center
Thu 08:27:15 PM 33.6375 -83.8717 North 462 532 38,000  Level Atlanta Center
Thu 08:28:15 PM 33.7692 -83.8489 North 467 537 38,000  Level Atlanta Center
Thu 08:29:15 PM 33.8983 -83.8311 North 472 543 38,000  Level Atlanta Center
Thu 08:30:15 PM 34.0319 -83.8106 North 472 543 38,000  Level Atlanta Center
Thu 08:31:15 PM 34.1675 -83.7903 North 483 556 38,000  Level Atlanta Center
Thu 08:32:15 PM 34.3011 -83.7697 North 483 556 38,000  Level Atlanta Center
Thu 08:33:15 PM 34.4347 -83.7442 North 483 556 38,000  Level Atlanta Center
Thu 08:34:15 PM 34.5681 -83.7108 12° North 489 563 38,000  Level Atlanta Center
Thu 08:35:15 PM 34.6975 -83.6647 16° North 478 550 38,000  Level Atlanta Center
Thu 08:36:15 PM 34.8308 -83.6364 10° North 478 550 38,000  Level Atlanta Center
Thu 08:37:15 PM 34.9494 -83.5622 27° Northeast 473 544 38,000  Level Atlanta Center
Thu 08:38:15 PM 35.0722 -83.4753 30° Northeast 479 551 38,000  Level Atlanta Center
Thu 08:39:15 PM 35.1928 -83.3933 29° Northeast 494 568 38,000  Level Atlanta Center
Thu 08:40:15 PM 35.3239 -83.3261 23° Northeast 499 574 38,000  Level Atlanta Center
Thu 08:41:15 PM 35.4594 -83.2892 13° North 492 566 38,000  Level Atlanta Center
Thu 08:42:15 PM 35.5969 -83.2803 North 492 566 38,000  Level Atlanta Center
Thu 08:43:15 PM 35.7325 -83.2842 359° North 482 555 38,000  Level Atlanta Center
Thu 08:44:15 PM 35.8683 -83.2803 North 482 555 38,000  Level Atlanta Center
Thu 08:45:15 PM 35.9786 -83.2767 North 482 555 38,000  Level Atlanta Center
Thu 08:46:15 PM 36.1247 -83.2728 North 476 548 38,000  Level Atlanta Center
Thu 08:47:15 PM 36.2603 -83.2739 360° North 476 548 38,000  Level Atlanta Center
Thu 08:50:05 PM 36.6458 -83.2967 357° North 486 559 38,000  Level Indianapolis Center
Thu 08:51:07 PM 36.7817 -83.3131 354° North 484 557 38,000  Level Indianapolis Center
Thu 08:52:09 PM 36.9175 -83.3294 354° North 484 557 38,000  Level Indianapolis Center
Thu 08:53:10 PM 37.0547 -83.3486 354° North 487 560 38,000  Level Indianapolis Center
Thu 08:54:12 PM 37.2131 -83.3681 354° North 484 557 38,000  Level Indianapolis Center
Thu 08:55:13 PM 37.3367 -83.4236 340° North 470 541 38,000  Level Indianapolis Center
Thu 08:56:15 PM 37.4433 -83.5092 328° Northwest 456 525 38,000  Level Indianapolis Center
Thu 08:57:17 PM 37.5517 -83.5947 328° Northwest 459 528 38,000  Level Indianapolis Center
Thu 08:58:18 PM 37.6611 -83.6814 328° Northwest 462 532 38,000  Level Indianapolis Center
Thu 08:59:20 PM 37.7703 -83.7669 328° Northwest 462 532 38,000  Level Indianapolis Center
Thu 09:01:23 PM 38.0061 -83.9533 328° Northwest 459 528 38,000  Level Indianapolis Center
Thu 09:02:25 PM 38.1133 -84.0392 328° Northwest 458 527 38,000  Level Indianapolis Center
Thu 09:03:27 PM 38.2208 -84.1256 328° Northwest 456 525 38,000  Level Indianapolis Center
Thu 09:04:28 PM 38.3292 -84.2131 328° Northwest 457 526 38,000  Level Indianapolis Center
Thu 09:05:30 PM 38.4372 -84.3008 328° Northwest 458 527 38,000 -244 Level Indianapolis Center
Thu 09:06:31 PM 38.5456 -84.3886 328° Northwest 460 529 37,500 -488 Descending Indianapolis Center
Thu 09:07:33 PM 38.6697 -84.4897 328° Northwest 471 542 37,000 -242 Descending Indianapolis Center
Thu 09:08:35 PM 38.7675 -84.5703 327° Northwest 473 544 37,000 -341 Level Indianapolis Center
Thu 09:09:36 PM 38.8969 -84.6772 327° Northwest 475 547 36,300 -829 Descending Indianapolis Center
Thu 09:10:38 PM 38.9989 -84.7794 322° Northwest 475 547 35,300 -976 Descending Indianapolis Center
Thu 09:11:39 PM 39.0994 -84.8975 318° Northwest 478 550 34,300 -976 Descending Indianapolis Center
Thu 09:12:41 PM 39.1925 -85.0081 317° Northwest 465 535 33,300 -1,024 Descending Indianapolis Center
Thu 09:13:42 PM 39.2864 -85.1214 317° Northwest 460 529 32,200 -1,024 Descending Indianapolis Center
Thu 09:14:44 PM 39.3783 -85.2331 317° Northwest 450 518 31,200 -968 Descending Indianapolis Center
Thu 09:15:46 PM 39.4903 -85.3236 328° Northwest 478 550 30,200 -585 Descending Indianapolis Center
Thu 09:16:47 PM 39.6044 -85.4017 332° Northwest 464 534 30,000 -98 Descending Indianapolis Center
Thu 09:17:49 PM 39.7189 -85.4817 332° Northwest 462 532 30,000 -634 Level Indianapolis Center
Thu 09:18:50 PM 39.8322 -85.5625 331° Northwest 458 527 28,700 -1,659 Descending Indianapolis Center
Thu 09:19:52 PM 39.9419 -85.6403 331° Northwest 450 518 26,600 -2,195 Descending Indianapolis Center
Thu 09:20:53 PM 40.0686 -85.7297 332° Northwest 442 509 24,200 -1,268 Descending Indianapolis Center
Thu 09:21:55 PM 40.1744 -85.8042 332° Northwest 432 497 24,000 -130 Descending Indianapolis Center
Thu 09:22:25 PM 40.2158 -85.8319 333° Northwest 421 484 24,000  Level Chicago Center
Thu 09:23:27 PM 40.3158 -85.9044 331° Northwest 412 474 24,000 -98 Level Chicago Center
Thu 09:24:28 PM 40.4133 -85.9742 331° Northwest 402 463 23,800 -927 Descending Chicago Center
Thu 09:25:30 PM 40.5103 -86.0433 332° Northwest 398 458 22,100 -2,032 Descending Chicago Center
Thu 09:26:32 PM 40.6219 -86.1247 331° Northwest 387 445 19,600 -2,468 Descending Chicago Center
Thu 09:27:34 PM 40.7181 -86.1933 332° Northwest 389 448 17,000 -1,935 Descending Chicago Center
Thu 09:28:36 PM 40.8108 -86.2589 332° Northwest 383 441 15,600 -1,561 Descending Chicago Center
Thu 09:29:37 PM 40.8992 -86.3242 331° Northwest 370 426 13,800 -1,707 Descending Chicago Center
Thu 09:30:39 PM 40.9875 -86.3886 331° Northwest 364 419 12,100 -1,403 Descending Chicago Center
Thu 09:31:41 PM 41.0619 -86.4683 321° Northwest 357 411 10,900 -1,016 Descending Chicago Center
Thu 09:32:43 PM 41.1042 -86.5722 298° West 325 374 10,000 -435 Descending Chicago Center
Thu 09:33:45 PM 41.1586 -86.6592 310° West 309 356 10,000  Level Chicago Center
Thu 09:34:46 PM 41.2364 -86.7461 320° Northwest 316 364 10,000 -341 Level Chicago Center
Thu 09:35:48 PM 41.3019 -86.8222 319° Northwest 316 364 9,300 -823 Descending Chicago Center
Thu 09:36:50 PM 41.3675 -86.8964 320° Northwest 312 359 8,300 -968 Descending Chicago Center
Thu 09:37:52 PM 41.4303 -86.9706 318° Northwest 306 352 7,300 -1,065 Descending Chicago Center
Thu 09:38:54 PM 41.4833 -87.0711 305° West 288 331 6,100 -634 Descending Chicago Center
Thu 09:39:55 PM 41.5147 -87.1589 296° West 270 311 6,000 -67 Descending Chicago Center
Thu 09:40:24 PM 41.5167 -87.2000 274° West 230 265 6,000  Level Chicago TRACON
Thu 09:41:30 PM 41.5167 -87.3000 270° West 209 241 6,000 -476 Level Chicago TRACON
Thu 09:42:30 PM 41.5333 -87.3667 288° West 216 249 5,000 -923 Descending Chicago TRACON
Thu 09:43:01 PM 41.5344 -87.3942 273° West 213 245 4,600 -652 Descending Chicago Center
Thu 09:44:02 PM 41.5811 -87.4686 310° West 217 250 4,000 -293 Descending Chicago Center
Thu 09:45:04 PM 41.6242 -87.5261 315° West 220 253 4,000  Level Chicago Center
Thu 09:46:06 PM 41.6661 -87.5844 314° West 220 253 4,000 -484 Level Chicago Center
Thu 09:47:08 PM 41.7031 -87.6375 313° West 212 244 3,000 -968 Descending Chicago Center
Thu 09:48:10 PM 41.7347 -87.6825 313° West 191 220 2,000 -1,012 Descending Chicago Center
Thu 09:48:31 PM 41.7500 -87.7000 319° Northwest 147 169 1,600 -537 Descending Chicago TRACON
Thu 09:50:13 PM 41.7925 -87.7633 312° West 158 182 900 -412 Descending Chicago Center

Login

Don't have an account? Register now (free) for customized features, flight alerts, and more!